Time;durP1;ratioP1;P1;durP2;ratioP2;P2;SDS_P1;SDS_P2;PMS_P1;PMS_P2;Temp;Humidity;BMP_temperature;BMP_pressure;BME280_temperature;BME280_humidity;BME280_pressure;Samples;Min_cycle;Max_cycle;Signal;HPM_P1;HPM_P2
2023/01/12 00:01:32;;;;;;;12.77;2.80;;;;;;;8.01;92.74;100246.84;4969981;28;20425;-81
2023/01/12 00:03:59;;;;;;;19.77;2.80;;;;;;;8.00;92.63;100245.13;4964588;28;20038;-80
2023/01/12 00:06:26;;;;;;;17.02;1.90;;;;;;;8.00;92.25;100245.13;4970313;28;20543;-80
2023/01/12 00:08:53;;;;;;;13.30;2.08;;;;;;;8.05;92.33;100232.44;4986829;28;20050;-82
2023/01/12 00:11:20;;;;;;;9.60;2.20;;;;;;;8.08;91.91;100233.16;5002465;28;20519;-80
2023/01/12 00:13:47;;;;;;;8.45;2.70;;;;;;;8.05;91.54;100227.13;4959312;28;20069;-80
2023/01/12 00:16:39;;;;;;;13.65;2.55;;;;;;;8.03;90.98;100222.91;4956040;28;20048;-80
2023/01/12 00:19:14;;;;;;;20.17;3.10;;;;;;;8.10;91.68;100223.31;4919750;28;20054;-80
2023/01/12 00:24:24;;;;;;;15.52;2.22;;;;;;;8.14;91.54;100215.06;4920049;28;20054;-81
2023/01/12 00:26:52;;;;;;;10.65;2.15;;;;;;;8.16;91.30;100212.28;4968058;28;20050;-80
2023/01/12 00:29:19;;;;;;;10.40;1.90;;;;;;;8.15;91.43;100216.75;4969372;28;20069;-80
2023/01/12 00:31:45;;;;;;;9.80;1.90;;;;;;;8.18;91.09;100218.31;4937958;28;21151;-83
2023/01/12 00:34:13;;;;;;;8.55;1.88;;;;;;;8.20;91.12;100213.78;4931085;28;20050;-80
2023/01/12 00:36:40;;;;;;;12.38;2.17;;;;;;;8.22;91.03;100217.16;4968948;28;20050;-80
2023/01/12 00:39:07;;;;;;;11.95;2.15;;;;;;;8.23;90.54;100213.53;4954328;28;20060;-81
2023/01/12 00:47:08;;;;;;;9.40;1.85;;;;;;;8.19;89.89;100206.78;4969314;28;20441;-80
2023/01/12 00:49:35;;;;;;;12.98;1.98;;;;;;;8.22;90.16;100211.88;4969167;28;20042;-79
2023/01/12 00:52:04;;;;;;;10.15;1.85;;;;;;;8.20;89.63;100203.19;4969154;28;20046;-80
2023/01/12 00:54:32;;;;;;;14.95;2.50;;;;;;;8.23;89.85;100197.66;4971991;28;20045;-80
2023/01/12 00:57:00;;;;;;;13.07;2.00;;;;;;;8.22;89.51;100207.41;4971447;28;20054;-81
2023/01/12 00:59:45;;;;;;;9.15;1.77;;;;;;;8.22;89.64;100202.13;4923601;28;20034;-79
2023/01/12 01:02:30;;;;;;;12.15;2.10;;;;;;;8.20;89.19;100198.75;4972114;28;20401;-81
2023/01/12 01:05:16;;;;;;;7.43;1.73;;;;;;;8.19;89.19;100205.00;5004554;28;20488;-80
2023/01/12 01:07:45;;;;;;;15.60;1.92;;;;;;;8.20;88.80;100204.03;4950156;28;20056;-80
2023/01/12 01:10:13;;;;;;;11.95;2.05;;;;;;;8.22;88.93;100203.94;4983359;28;20139;-80
2023/01/12 01:12:40;;;;;;;12.38;2.33;;;;;;;8.23;88.93;100202.97;4975149;28;20086;-84
2023/01/12 01:15:08;;;;;;;8.10;2.15;;;;;;;8.24;88.65;100204.63;4933296;28;20054;-80
2023/01/12 01:17:35;;;;;;;11.73;1.92;;;;;;;8.24;88.73;100194.94;4946705;28;20057;-80
2023/01/12 01:20:02;;;;;;;14.13;1.85;;;;;;;8.26;88.84;100192.97;4983823;28;20054;-81
2023/01/12 01:22:29;;;;;;;10.93;1.90;;;;;;;8.26;88.75;100198.28;4935705;28;20438;-80
2023/01/12 01:24:56;;;;;;;15.45;2.25;;;;;;;8.25;88.62;100201.88;4948464;28;20042;-80
2023/01/12 01:27:22;;;;;;;10.85;1.63;;;;;;;8.25;88.47;100201.06;4963401;28;20057;-81
2023/01/12 01:29:49;;;;;;;11.50;2.13;;;;;;;8.25;88.61;100209.81;4951712;28;20402;-80
2023/01/12 01:32:16;;;;;;;15.98;2.17;;;;;;;8.27;88.77;100204.44;4992554;28;20056;-80
2023/01/12 01:34:45;;;;;;;9.18;2.17;;;;;;;8.25;88.54;100199.25;4984107;28;20596;-80
2023/01/12 01:37:11;;;;;;;7.53;1.35;;;;;;;8.27;88.52;100207.91;4985589;28;20053;-80
2023/01/12 01:39:38;;;;;;;9.68;1.88;;;;;;;8.29;88.61;100202.50;4950551;28;20050;-80
2023/01/12 01:42:26;;;;;;;12.43;2.03;;;;;;;8.30;88.19;100198.91;4964978;28;20429;-81
2023/01/12 01:44:54;;;;;;;12.68;1.90;;;;;;;8.28;88.53;100208.75;4955315;28;20070;-80
2023/01/12 01:47:25;;;;;;;11.25;1.88;;;;;;;8.27;87.84;100215.03;4965894;28;20613;-80
2023/01/12 01:50:15;;;;;;;14.35;2.25;;;;;;;8.26;87.95;100211.50;4989771;28;20386;-80
2023/01/12 01:53:07;;;;;;;10.02;1.50;;;;;;;8.25;87.70;100199.25;4965464;28;20053;-81
2023/01/12 01:55:55;;;;;;;11.60;1.63;;;;;;;8.30;87.65;100203.38;4965642;28;20110;-80
2023/01/12 01:58:50;;;;;;;17.42;1.85;;;;;;;8.19;86.81;100191.78;4942971;28;20599;-79
2023/01/12 02:01:35;;;;;;;;;;;;;;;8.10;85.94;100203.00;4955846;28;20031;-80
2023/01/12 02:04:02;;;;;;;8.88;1.63;;;;;;;8.22;87.28;100199.47;5013804;28;19953;-80
2023/01/12 02:06:29;;;;;;;14.77;2.00;;;;;;;8.22;86.90;100186.25;4956580;28;20054;-80
2023/01/12 02:09:13;;;;;;;14.38;2.70;;;;;;;8.21;86.75;100189.00;4959582;28;20046;-80
2023/01/12 02:17:21;;;;;;;12.82;2.03;;;;;;;8.22;85.75;100175.66;4966544;28;20401;-80
2023/01/12 02:20:26;;;;;;;17.92;3.63;;;;;;;8.22;86.30;100166.91;4997427;28;20038;-80
2023/01/12 02:23:09;;;;;;;11.70;1.63;;;;;;;8.23;85.57;100168.56;4967584;28;20096;-80
2023/01/12 02:25:45;;;;;;;11.82;2.17;;;;;;;8.30;86.86;100172.47;4980428;28;20045;-80
2023/01/12 02:28:50;;;;;;;14.10;2.33;;;;;;;8.25;85.64;100164.00;4991405;28;20050;-81
2023/01/12 02:31:30;;;;;;;9.10;1.48;;;;;;;8.23;84.66;100158.81;4934935;28;20060;-80
2023/01/12 02:34:09;;;;;;;11.55;1.80;;;;;;;8.27;85.85;100156.81;4967188;28;20410;-80
2023/01/12 02:37:24;;;;;;;15.60;2.55;;;;;;;8.22;85.13;100151.84;4998612;28;20046;-80
2023/01/12 02:40:08;;;;;;;11.50;1.98;;;;;;;8.29;85.82;100148.75;4917234;28;20097;-79
2023/01/12 02:42:53;;;;;;;12.48;1.50;;;;;;;8.34;86.45;100138.66;4985227;28;20039;-80
2023/01/12 02:45:25;;;;;;;11.77;1.70;;;;;;;8.29;85.29;100138.16;4995724;28;20058;-80
2023/01/12 02:48:03;;;;;;;11.63;2.10;;;;;;;8.35;86.12;100145.66;4994913;28;20129;-80
2023/01/12 02:50:51;;;;;;;9.65;1.58;;;;;;;8.28;85.04;100142.63;5011556;28;20057;-80
2023/01/12 02:53:29;;;;;;;12.35;1.88;;;;;;;8.38;86.21;100135.69;4968806;28;20046;-80
2023/01/12 02:55:59;;;;;;;12.13;1.73;;;;;;;8.38;86.32;100134.84;4992832;28;20042;-80
2023/01/12 02:58:26;;;;;;;15.68;2.00;;;;;;;8.40;86.40;100131.16;4997304;28;20443;-80
2023/01/12 03:00:54;;;;;;;11.05;2.30;;;;;;;8.42;86.65;100133.66;5008986;28;20038;-79
2023/01/12 03:03:21;;;;;;;7.53;1.73;;;;;;;8.41;85.95;100135.47;4997863;28;20386;-80
2023/01/12 03:05:50;;;;;;;9.57;1.83;;;;;;;8.42;85.80;100123.09;4980903;28;20042;-80
2023/01/12 03:08:22;;;;;;;11.00;1.92;;;;;;;8.41;85.65;100129.34;4981721;28;20433;-80
2023/01/12 03:11:11;;;;;;;14.45;1.90;;;;;;;8.35;85.19;100122.69;4976658;28;20446;-80
2023/01/12 03:13:41;;;;;;;8.50;1.90;;;;;;;8.37;85.42;100117.25;5000255;28;20042;-80
2023/01/12 03:16:09;;;;;;;18.10;2.28;;;;;;;8.33;84.93;100118.47;5013834;28;20508;-80
2023/01/12 03:18:49;;;;;;;14.63;1.70;;;;;;;8.31;84.27;100115.09;4978256;28;20497;-80
2023/01/12 03:21:21;;;;;;;14.18;2.13;;;;;;;8.36;85.00;100108.50;5000875;28;20042;-80
2023/01/12 03:24:07;;;;;;;8.07;1.42;;;;;;;8.32;84.83;100108.81;4976841;28;20043;-80
2023/01/12 03:26:35;;;;;;;7.50;1.52;;;;;;;8.41;85.40;100116.13;4996168;28;20383;-80
2023/01/12 03:29:30;;;;;;;12.30;2.83;;;;;;;8.33;84.03;100103.44;4957372;28;20050;-80
2023/01/12 03:31:58;;;;;;;10.98;2.03;;;;;;;8.42;85.12;100117.78;4977690;28;20042;-80
2023/01/12 03:34:25;;;;;;;6.78;1.75;;;;;;;8.43;84.77;100111.56;5002774;28;20490;-80
2023/01/12 03:37:00;;;;;;;13.57;2.10;;;;;;;8.40;84.41;100111.81;5005161;28;20061;-81
2023/01/12 03:39:45;;;;;;;6.38;1.90;;;;;;;8.37;84.05;100110.19;5021090;28;20079;-80
2023/01/12 03:42:21;;;;;;;11.65;1.70;;;;;;;8.36;83.32;100111.13;5010066;28;20046;-80
2023/01/12 03:44:54;;;;;;;7.85;1.70;;;;;;;8.38;82.66;100111.03;5009351;28;20042;-80
2023/01/12 03:47:23;;;;;;;9.52;1.98;;;;;;;8.40;84.08;100104.69;4967558;28;20892;-80
2023/01/12 03:49:54;;;;;;;9.90;1.80;;;;;;;8.41;83.79;100116.97;4985100;28;21525;-83
2023/01/12 03:52:21;;;;;;;9.57;1.65;;;;;;;8.44;84.36;100113.25;4950686;28;20042;-80
2023/01/12 03:54:48;;;;;;;14.60;1.55;;;;;;;8.40;83.45;100096.75;4961244;28;20487;-79
2023/01/12 03:57:16;;;;;;;8.52;2.42;;;;;;;8.43;83.43;100106.28;4969257;28;20046;-80
2023/01/12 03:59:42;;;;;;;14.23;1.88;;;;;;;8.45;83.73;100110.50;4971215;28;20093;-80
2023/01/12 04:02:09;;;;;;;15.50;3.15;;;;;;;8.46;84.03;100103.38;4970391;28;20049;-80
2023/01/12 04:04:36;;;;;;;18.38;3.20;;;;;;;8.45;83.36;100102.56;4970323;28;20128;-80
2023/01/12 04:07:03;;;;;;;12.35;1.70;;;;;;;8.45;83.17;100101.72;5002066;28;20141;-81
2023/01/12 04:09:29;;;;;;;12.48;2.00;;;;;;;8.47;83.59;100097.13;4999913;28;20096;-80
2023/01/12 04:12:11;;;;;;;9.93;2.53;;;;;;;8.48;83.84;100106.75;4985105;28;20486;-80
2023/01/12 04:14:43;;;;;;;9.75;1.67;;;;;;;8.48;83.88;100101.47;4948266;28;20117;-80
2023/01/12 04:17:14;;;;;;;10.00;1.80;;;;;;;8.49;84.22;100097.84;4968523;28;20050;-80
2023/01/12 04:19:40;;;;;;;16.58;2.88;;;;;;;8.47;84.08;100098.00;4981285;28;20384;-80
2023/01/12 04:24:54;;;;;;;12.07;1.92;;;;;;;8.49;84.01;100103.16;4974432;28;20050;-80
2023/01/12 04:27:21;;;;;;;13.00;2.08;;;;;;;8.49;83.67;100092.56;4978266;28;20050;-79
2023/01/12 04:29:47;;;;;;;9.13;2.38;;;;;;;8.51;83.83;100097.75;4986100;28;20112;-80
2023/01/12 04:32:14;;;;;;;13.50;1.85;;;;;;;8.51;83.97;100097.75;4986556;28;20046;-79
2023/01/12 04:34:41;;;;;;;8.73;1.98;;;;;;;8.52;83.50;100096.78;4999675;28;20049;-80
2023/01/12 04:37:07;;;;;;;19.30;2.28;;;;;;;8.50;83.27;100083.69;4983336;28;20044;-80
2023/01/12 04:39:34;;;;;;;5.55;1.33;;;;;;;8.53;83.14;100083.44;4978824;28;20045;-80
2023/01/12 04:42:01;;;;;;;10.18;1.63;;;;;;;8.51;83.16;100090.66;4947652;28;20058;-80
2023/01/12 04:44:27;;;;;;;14.23;1.90;;;;;;;8.52;83.02;100096.78;4985535;28;20053;-80
2023/01/12 04:46:54;;;;;;;12.43;1.98;;;;;;;8.52;83.27;100071.16;4969522;28;20112;-79
2023/01/12 04:49:21;;;;;;;11.00;2.75;;;;;;;8.52;83.36;100092.31;4964767;28;20050;-80
2023/01/12 04:51:47;;;;;;;10.52;2.03;;;;;;;8.55;82.65;100083.31;4949826;28;20062;-80
2023/01/12 04:54:14;;;;;;;10.45;1.77;;;;;;;8.54;82.88;100077.19;5002569;28;20038;-79
2023/01/12 04:56:41;;;;;;;10.05;2.08;;;;;;;8.54;83.10;100079.81;4984619;28;20041;-80
2023/01/12 04:59:09;;;;;;;10.57;1.40;;;;;;;8.54;83.00;100071.03;4985361;28;20630;-80
2023/01/12 05:01:37;;;;;;;10.45;2.03;;;;;;;8.53;82.90;100072.03;4998726;28;20042;-79
2023/01/12 05:04:05;;;;;;;12.45;3.05;;;;;;;8.54;82.59;100056.00;4984638;28;20047;-80
2023/01/12 05:06:33;;;;;;;8.77;1.80;;;;;;;8.53;82.57;100070.22;4945967;28;20046;-80
2023/01/12 05:11:45;;;;;;;7.43;1.55;;;;;;;8.53;82.45;100053.50;4996875;28;20397;-80
2023/01/12 05:14:12;;;;;;;11.43;2.15;;;;;;;8.52;82.08;100054.44;4972223;28;20045;-80
2023/01/12 05:16:39;;;;;;;8.75;1.80;;;;;;;8.55;82.68;100064.78;4949237;28;20054;-79
2023/01/12 05:19:07;;;;;;;14.73;2.22;;;;;;;8.56;82.78;100062.03;4984574;28;20038;-78
2023/01/12 05:21:34;;;;;;;17.02;2.90;;;;;;;8.54;82.20;100060.47;4963268;28;20050;-78
2023/01/12 05:24:00;;;;;;;7.53;2.00;;;;;;;8.52;82.11;100060.56;4969954;28;20065;-78
2023/01/12 05:26:27;;;;;;;11.95;3.15;;;;;;;8.50;82.50;100054.56;4984023;28;20067;-78
2023/01/12 05:28:54;;;;;;;13.13;2.92;;;;;;;8.52;82.45;100049.97;4978630;28;20050;-78
2023/01/12 05:31:20;;;;;;;13.13;2.17;;;;;;;8.49;81.96;100060.81;4955444;28;20057;-78
2023/01/12 05:33:47;;;;;;;13.07;3.08;;;;;;;8.54;81.90;100060.47;4968826;28;20862;-78
2023/01/12 05:36:16;;;;;;;18.90;2.40;;;;;;;8.56;82.14;100061.19;4948519;28;20057;-80
2023/01/12 05:38:42;;;;;;;13.00;2.30;;;;;;;8.56;82.29;100059.38;4929870;28;20046;-80
2023/01/12 05:41:10;;;;;;;10.38;2.30;;;;;;;8.57;82.45;100050.47;4948673;28;20436;-80
2023/01/12 05:43:49;;;;;;;17.70;2.35;;;;;;;8.58;82.68;100051.34;4990003;28;20057;-80
2023/01/12 05:46:26;;;;;;;14.63;2.28;;;;;;;8.52;82.50;100049.97;4963863;28;20566;-80
2023/01/12 05:48:55;;;;;;;14.18;1.98;;;;;;;8.56;82.78;100046.16;4993311;28;20052;-81
2023/01/12 05:51:23;;;;;;;14.25;3.05;;;;;;;8.57;82.76;100041.69;4996782;28;20050;-80
2023/01/12 05:53:50;;;;;;;16.00;2.05;;;;;;;8.57;82.75;100046.97;4955647;28;20041;-81
2023/01/12 05:56:24;;;;;;;8.05;1.60;;;;;;;8.58;82.96;100049.53;4971341;28;20486;-81
2023/01/12 05:58:57;;;;;;;12.35;1.63;;;;;;;8.56;82.77;100040.84;4978721;28;20046;-80
2023/01/12 06:01:24;;;;;;;13.93;1.75;;;;;;;8.52;82.59;100044.69;5001347;28;20045;-80
2023/01/12 06:03:52;;;;;;;15.98;2.28;;;;;;;8.56;82.73;100024.97;4971813;28;20044;-81
2023/01/12 06:06:21;;;;;;;13.70;2.50;;;;;;;8.54;82.58;100021.59;4979519;28;20058;-81
2023/01/12 06:08:48;;;;;;;9.90;1.90;;;;;;;8.57;82.61;100020.50;4948388;28;20232;-82
2023/01/12 06:14:04;;;;;;;9.73;2.20;;;;;;;8.52;82.36;100010.28;4998682;28;20038;-80
2023/01/12 06:16:31;;;;;;;9.68;2.50;;;;;;;8.52;82.54;100012.09;4984887;28;20057;-81
2023/01/12 06:18:58;;;;;;;9.13;2.67;;;;;;;8.55;82.87;100018.00;4955015;28;20046;-80
2023/01/12 06:21:24;;;;;;;12.85;2.00;;;;;;;8.54;82.94;99999.59;4998596;28;20104;-80
2023/01/12 06:23:51;;;;;;;15.18;1.73;;;;;;;8.55;82.80;100001.25;5015156;28;20052;-81
2023/01/12 06:26:18;;;;;;;13.68;1.80;;;;;;;8.57;82.88;100007.28;4985872;28;20145;-80
2023/01/12 06:28:44;;;;;;;8.40;2.28;;;;;;;8.58;83.21;100001.88;4963949;28;20047;-80
2023/01/12 06:31:12;;;;;;;13.98;2.08;;;;;;;8.59;82.96;100000.06;4992890;28;20137;-81
2023/01/12 06:33:39;;;;;;;16.02;3.08;;;;;;;8.60;83.35;100001.75;4972182;28;20085;-81
2023/01/12 06:36:06;;;;;;;10.80;1.73;;;;;;;8.59;83.31;100006.19;4972581;28;20078;-80
2023/01/12 06:38:33;;;;;;;10.73;1.60;;;;;;;8.60;83.26;100004.38;4968697;28;20041;-81
2023/01/12 06:41:05;;;;;;;13.57;2.38;;;;;;;8.58;82.95;100012.47;4980805;28;20093;-79
2023/01/12 06:43:32;;;;;;;10.15;1.75;;;;;;;8.60;83.08;100012.34;4963915;28;20053;-79
2023/01/12 06:45:59;;;;;;;11.73;1.70;;;;;;;8.60;83.39;100007.91;4950347;28;20040;-79
2023/01/12 06:48:26;;;;;;;12.52;2.33;;;;;;;8.60;83.21;100007.91;4977506;28;20051;-79
2023/01/12 06:51:05;;;;;;;7.40;2.28;;;;;;;8.60;83.37;100005.25;4938667;28;20050;-79
2023/01/12 06:53:31;;;;;;;14.60;2.30;;;;;;;8.61;83.42;100006.09;4954998;28;20133;-78
2023/01/12 06:55:58;;;;;;;10.05;1.77;;;;;;;8.61;83.41;99998.16;4974122;28;20064;-79
2023/01/12 06:58:25;;;;;;;16.10;2.13;;;;;;;8.61;83.29;100006.09;4975453;28;20054;-79
2023/01/12 07:00:51;;;;;;;13.68;2.00;;;;;;;8.60;83.36;99999.09;5001842;28;20941;-79
2023/01/12 07:03:19;;;;;;;10.20;4.40;;;;;;;8.61;83.04;100000.81;5001565;28;20073;-79
2023/01/12 07:05:46;;;;;;;11.32;2.63;;;;;;;8.61;83.15;100003.44;4937370;28;20525;-81
2023/01/12 07:08:14;;;;;;;11.48;2.63;;;;;;;8.61;83.20;99998.16;4971099;28;20448;-79
2023/01/12 07:10:42;;;;;;;13.25;1.65;;;;;;;8.63;83.35;99989.13;4990002;28;20037;-79
2023/01/12 07:13:08;;;;;;;13.80;2.58;;;;;;;8.63;83.43;100004.19;4968362;28;20069;-80
2023/01/12 07:15:35;;;;;;;8.10;1.75;;;;;;;8.65;83.14;100004.88;4953502;28;20042;-78
2023/01/12 07:18:02;;;;;;;7.65;1.70;;;;;;;8.63;82.37;99989.13;4969723;28;20053;-79
2023/01/12 07:20:31;;;;;;;11.30;2.30;;;;;;;8.65;82.51;99996.94;4953651;28;20042;-79
2023/01/12 07:22:58;;;;;;;16.65;2.65;;;;;;;8.65;82.78;100004.88;4981174;28;20055;-79
2023/01/12 07:25:25;;;;;;;15.88;2.17;;;;;;;8.67;82.75;100001.16;4984541;28;20520;-78
2023/01/12 07:27:53;;;;;;;8.15;1.80;;;;;;;8.68;82.91;100007.31;4976724;28;20097;-79
2023/01/12 07:30:20;;;;;;;7.82;2.10;;;;;;;8.67;82.88;99997.66;4954291;28;20050;-79
2023/01/12 07:32:48;;;;;;;10.80;1.95;;;;;;;8.68;82.88;100000.22;4938164;28;20133;-79
2023/01/12 07:35:15;;;;;;;9.63;2.10;;;;;;;8.69;82.89;100003.69;4957508;28;20096;-78
2023/01/12 07:37:50;;;;;;;11.27;2.47;;;;;;;8.67;82.76;100002.97;4956291;28;20401;-79
2023/01/12 07:40:17;;;;;;;9.90;1.50;;;;;;;8.71;82.65;99993.00;4981370;28;20155;-78
2023/01/12 07:42:44;;;;;;;8.25;1.95;;;;;;;8.71;82.68;99980.59;4985295;28;20046;-79
2023/01/12 07:45:11;;;;;;;10.20;1.65;;;;;;;8.70;82.48;99978.88;4954702;28;20050;-80
2023/01/12 07:47:38;;;;;;;8.25;1.50;;;;;;;8.73;82.65;99967.22;5003753;28;20038;-79
2023/01/12 07:50:06;;;;;;;9.77;2.30;;;;;;;8.72;82.70;99963.72;4987645;28;20458;-78
2023/01/12 07:52:33;;;;;;;10.07;1.83;;;;;;;8.73;82.60;99976.03;4972123;28;20445;-78
2023/01/12 07:55:00;;;;;;;8.75;1.70;;;;;;;8.73;82.64;99965.44;4982521;28;20042;-78
2023/01/12 07:57:28;;;;;;;10.40;1.65;;;;;;;8.74;82.69;99953.88;4969592;28;20053;-79
2023/01/12 07:59:54;;;;;;;9.50;1.55;;;;;;;8.75;82.58;99965.28;5000185;28;20054;-79
2023/01/12 08:02:21;;;;;;;10.15;1.55;;;;;;;8.74;82.29;99964.47;5003126;28;20053;-79
2023/01/12 08:04:48;;;;;;;8.27;1.60;;;;;;;8.74;82.43;99969.75;4937714;28;20494;-78
2023/01/12 08:07:15;;;;;;;5.45;1.63;;;;;;;8.76;82.77;99974.94;4983188;28;20034;-79
2023/01/12 08:09:41;;;;;;;10.75;1.50;;;;;;;8.73;82.45;99973.38;4952071;28;20714;-79
2023/01/12 08:12:08;;;;;;;8.68;1.70;;;;;;;8.74;82.88;99971.56;4985221;28;20050;-80
2023/01/12 08:14:36;;;;;;;7.32;1.60;;;;;;;8.75;83.04;99981.19;4937836;28;20379;-83
2023/01/12 08:17:06;;;;;;;9.93;1.52;;;;;;;8.73;83.06;99976.03;4979812;28;20133;-79
2023/01/12 08:19:37;;;;;;;9.45;1.42;;;;;;;8.73;82.92;99991.03;5003673;28;20038;-79
2023/01/12 08:22:07;;;;;;;17.80;1.73;;;;;;;8.73;83.42;99977.81;4971568;28;20046;-79
2023/01/12 08:24:39;;;;;;;10.43;1.70;;;;;;;8.74;83.75;99980.34;4987342;28;20038;-79
2023/01/12 08:27:07;;;;;;;9.50;1.35;;;;;;;8.73;83.88;99976.03;4967740;28;20050;-79
2023/01/12 08:29:46;;;;;;;9.98;1.63;;;;;;;8.68;83.64;99964.94;4987015;28;20052;-79
2023/01/12 08:32:16;;;;;;;6.78;1.40;;;;;;;8.75;83.74;99966.16;4986459;28;20038;-79
2023/01/12 08:34:46;;;;;;;6.03;1.08;;;;;;;8.72;83.47;99968.19;4978431;28;20128;-79
2023/01/12 08:37:15;;;;;;;12.40;1.83;;;;;;;8.75;83.43;99967.94;4997502;28;20494;-79
2023/01/12 08:39:44;;;;;;;4.53;1.30;;;;;;;8.77;83.84;99968.66;4984144;28;20046;-79
2023/01/12 08:42:11;;;;;;;7.50;1.30;;;;;;;8.76;83.82;99970.47;4954774;28;20050;-79
2023/01/12 08:44:38;;;;;;;9.27;1.52;;;;;;;8.76;83.93;99954.59;4987422;28;20416;-80
2023/01/12 08:47:17;;;;;;;10.88;1.77;;;;;;;8.73;84.09;99961.91;4981733;28;20038;-79
2023/01/12 08:49:46;;;;;;;6.40;1.17;;;;;;;8.76;84.23;99951.94;4985004;28;20045;-79
2023/01/12 08:52:14;;;;;;;8.25;1.48;;;;;;;8.80;84.08;99966.63;4970418;28;20058;-79
2023/01/12 08:54:41;;;;;;;9.32;1.52;;;;;;;8.80;84.27;99955.19;5000954;28;20049;-81
2023/01/12 08:57:08;;;;;;;7.82;1.52;;;;;;;8.81;84.21;99970.97;4987114;28;20046;-80
2023/01/12 08:59:34;;;;;;;9.45;1.17;;;;;;;8.81;83.90;99959.53;4999011;28;20042;-80
2023/01/12 09:02:01;;;;;;;8.45;1.50;;;;;;;8.82;83.98;99953.25;4945990;28;20054;-79
2023/01/12 09:04:28;;;;;;;7.93;1.50;;;;;;;8.82;83.81;99969.97;4982146;28;20041;-79
2023/01/12 09:06:55;;;;;;;8.25;1.83;;;;;;;8.81;83.73;99980.72;4978634;28;20085;-80
2023/01/12 09:09:24;;;;;;;9.23;1.42;;;;;;;8.82;83.66;99975.28;4981587;28;20042;-79
2023/01/12 09:11:51;;;;;;;4.40;1.10;;;;;;;8.84;83.21;99983.94;4987216;28;20100;-79
2023/01/12 09:14:17;;;;;;;9.68;1.10;;;;;;;8.85;83.44;99979.50;4982971;28;20097;-79
2023/01/12 09:16:44;;;;;;;5.15;1.30;;;;;;;8.87;83.18;99985.50;4974078;28;20517;-79
2023/01/12 09:19:11;;;;;;;4.40;1.38;;;;;;;8.86;83.30;99971.44;4965380;28;20049;-80
2023/01/12 09:21:39;;;;;;;5.80;1.00;;;;;;;8.89;83.18;99975.66;4986055;28;20149;-80
2023/01/12 09:24:06;;;;;;;12.85;1.98;;;;;;;8.89;83.18;99975.66;4980610;28;20445;-80
2023/01/12 09:26:51;;;;;;;6.00;1.20;;;;;;;8.82;83.11;99975.28;4963550;28;20043;-79
2023/01/12 09:29:18;;;;;;;7.38;1.25;;;;;;;8.88;83.19;99971.34;4943838;28;20059;-79
2023/01/12 09:31:44;;;;;;;11.23;1.80;;;;;;;8.91;83.38;99968.44;4993369;28;20054;-79
2023/01/12 09:34:12;;;;;;;12.80;2.10;;;;;;;8.86;82.97;99979.38;4952797;28;20051;-79
2023/01/12 09:36:39;;;;;;;8.73;1.40;;;;;;;8.91;83.30;99985.16;4964475;28;20050;-79
2023/01/12 09:39:09;;;;;;;7.38;1.95;;;;;;;8.95;82.45;99976.97;4960612;28;20061;-79
2023/01/12 09:48:00;;;;;;;8.60;1.40;;;;;;;8.88;82.74;99997.81;4971955;28;20080;-79
2023/01/12 09:50:45;;;;;;;8.02;1.42;;;;;;;8.90;82.79;99985.28;4926695;28;20137;-81
2023/01/12 09:53:30;;;;;;;11.50;1.52;;;;;;;8.91;82.28;99986.97;4981012;28;20038;-80
2023/01/12 09:56:01;;;;;;;5.82;1.63;;;;;;;8.95;82.61;99980.44;4935568;28;20103;-79
2023/01/12 09:58:33;;;;;;;8.55;1.88;;;;;;;8.91;81.59;99986.97;4944505;28;20050;-84
2023/01/12 10:01:00;;;;;;;5.60;1.35;;;;;;;8.98;82.20;99974.06;4993005;28;20054;-80
2023/01/12 10:03:30;;;;;;;5.78;1.40;;;;;;;8.99;82.27;99962.53;4951132;28;20092;-79
2023/01/12 10:06:05;;;;;;;10.48;1.50;;;;;;;9.01;82.17;99961.44;4970624;28;20121;-79
2023/01/12 10:08:36;;;;;;;11.45;1.92;;;;;;;9.02;81.62;99964.91;4999458;28;20050;-79
2023/01/12 10:11:37;;;;;;;10.27;2.33;;;;;;;8.97;81.60;99960.00;4963573;28;20129;-80
2023/01/12 10:14:31;;;;;;;8.48;1.48;;;;;;;8.98;81.19;99955.53;4921925;28;20073;-80
2023/01/12 10:17:26;;;;;;;16.15;1.83;;;;;;;8.94;80.44;99946.16;4953412;28;20054;-79
2023/01/12 10:20:06;;;;;;;16.40;1.60;;;;;;;9.05;81.68;99941.66;4938069;28;20050;-80
2023/01/12 10:22:46;;;;;;;13.15;1.42;;;;;;;9.06;81.38;99953.13;4967556;28;20562;-80
2023/01/12 10:25:28;;;;;;;7.00;1.33;;;;;;;9.07;81.68;99953.00;4981867;28;20041;-81
2023/01/12 10:27:57;;;;;;;7.28;1.33;;;;;;;9.10;81.33;99936.84;4996375;28;20049;-79
2023/01/12 10:30:30;;;;;;;6.95;2.10;;;;;;;9.08;80.82;99940.56;4943898;28;20038;-80
2023/01/12 10:33:11;;;;;;;8.27;1.20;;;;;;;9.08;81.05;99960.00;4999019;28;20050;-79
2023/01/12 10:35:57;;;;;;;5.88;1.13;;;;;;;9.06;81.03;99946.03;5017264;28;20050;-79
2023/01/12 10:38:30;;;;;;;6.15;1.35;;;;;;;9.15;81.46;99954.19;4968324;28;20504;-80
2023/01/12 10:41:08;;;;;;;;;;;;;;;8.98;81.39;99944.94;4998783;28;20049;-80
2023/01/12 10:43:36;;;;;;;3.38;1.23;;;;;;;9.08;81.68;99941.44;4978402;28;20399;-79
2023/01/12 10:46:14;;;;;;;9.65;1.20;;;;;;;9.14;81.62;99956.00;4979800;28;20053;-80
2023/01/12 10:48:46;;;;;;;8.95;1.50;;;;;;;9.16;81.31;99939.97;4948878;28;20074;-80
2023/01/12 10:51:25;;;;;;;10.60;1.33;;;;;;;9.12;81.02;99939.38;4975649;28;20047;-79
2023/01/12 10:53:56;;;;;;;4.22;1.05;;;;;;;9.16;81.18;99924.94;4968940;28;20042;-79
2023/01/12 10:56:26;;;;;;;11.60;1.77;;;;;;;9.15;81.03;99933.81;4968648;28;20468;-80
2023/01/12 10:58:57;;;;;;;7.35;1.38;;;;;;;9.17;80.94;99923.94;4979443;28;20046;-79
2023/01/12 11:01:24;;;;;;;6.15;1.02;;;;;;;9.20;80.97;99931.66;4965644;28;20120;-79
2023/01/12 11:04:03;;;;;;;8.70;2.08;;;;;;;9.16;80.90;99922.28;4977826;28;20101;-79
2023/01/12 11:06:31;;;;;;;8.93;1.88;;;;;;;9.22;81.14;99929.72;4962200;28;20083;-80
2023/01/12 11:09:16;;;;;;;10.45;1.33;;;;;;;9.17;81.22;99918.66;4949150;28;20061;-80
2023/01/12 11:11:42;;;;;;;6.50;1.20;;;;;;;9.22;80.37;99924.41;4917154;28;20058;-79
2023/01/12 11:14:20;;;;;;;7.32;0.90;;;;;;;9.20;80.51;99920.22;4976360;28;20046;-80
2023/01/12 11:16:49;;;;;;;11.13;1.33;;;;;;;9.24;80.96;99911.91;4965074;28;20720;-80
2023/01/12 11:19:28;;;;;;;8.77;1.33;;;;;;;9.20;80.11;99921.03;4951085;28;20130;-79
2023/01/12 11:21:59;;;;;;;7.82;1.13;;;;;;;9.26;80.81;99912.63;4975428;28;20069;-79
2023/01/12 11:24:59;;;;;;;8.32;1.00;;;;;;;9.21;80.05;99895.38;4984598;28;20046;-79
2023/01/12 11:27:34;;;;;;;8.93;1.10;;;;;;;9.28;80.56;99892.09;4931519;28;20046;-81
2023/01/12 11:30:15;;;;;;;8.73;1.02;;;;;;;9.23;80.28;99889.00;4990250;28;20558;-81
2023/01/12 11:32:47;;;;;;;24.92;1.50;;;;;;;9.29;80.52;99887.69;4975730;28;20050;-81
2023/01/12 11:35:45;;;;;;;5.90;1.00;;;;;;;9.22;79.68;99878.53;4983849;28;20049;-81
2023/01/12 11:38:18;;;;;;;6.40;1.17;;;;;;;9.28;80.14;99862.97;4962011;28;20046;-81
2023/01/12 11:40:45;;;;;;;3.42;0.98;;;;;;;9.34;80.83;99866.94;5002140;28;20404;-81
2023/01/12 11:46:04;;;;;;;2.95;1.00;;;;;;;9.33;80.38;99858.13;4984381;28;20137;-80
2023/01/12 11:48:50;;;;;;;4.15;1.08;;;;;;;9.31;79.82;99865.38;4984052;28;20507;-81
2023/01/12 11:51:16;;;;;;;4.82;0.90;;;;;;;9.38;80.51;99860.41;4984797;28;20049;-81
2023/01/12 11:53:43;;;;;;;7.03;0.90;;;;;;;9.42;80.62;99867.13;5001712;28;20050;-82
2023/01/12 11:56:46;;;;;;;5.80;1.20;;;;;;;9.30;79.95;99866.34;5002466;28;20039;-81
2023/01/12 11:59:26;;;;;;;4.35;0.90;;;;;;;9.37;80.31;99871.16;4945843;28;20136;-84
2023/01/12 12:02:28;;;;;;;2.13;0.85;;;;;;;9.33;80.44;99826.31;4980882;28;20501;-81
2023/01/12 12:05:06;;;;;;;3.20;0.63;;;;;;;9.37;80.65;99847.28;4896950;28;20056;-82
2023/01/12 12:07:55;;;;;;;3.05;0.82;;;;;;;9.34;80.54;99845.75;4983114;28;20406;-81
2023/01/12 12:10:33;;;;;;;4.72;0.80;;;;;;;9.31;80.52;99833.59;4925557;28;20057;-81
2023/01/12 12:13:19;;;;;;;7.28;1.17;;;;;;;9.37;80.82;99845.47;4979263;28;20042;-82
2023/01/12 12:15:52;;;;;;;5.30;0.90;;;;;;;9.43;80.93;99841.47;4949174;28;20046;-84
2023/01/12 12:18:19;;;;;;;9.88;1.23;;;;;;;9.46;81.05;99841.19;4984870;28;20453;-82
2023/01/12 12:21:00;;;;;;;5.63;1.23;;;;;;;9.47;80.91;99819.88;5000345;28;23510;-84
2023/01/12 12:23:57;;;;;;;4.07;1.75;;;;;;;9.42;80.56;99827.38;4985635;28;20037;-82
2023/01/12 12:26:32;;;;;;;4.65;1.45;;;;;;;9.49;81.10;99827.69;4974754;28;20076;-82
2023/01/12 12:29:09;;;;;;;1.42;0.80;;;;;;;9.49;81.14;99825.03;4965736;28;20121;-81